НПС Килемары

Карта отелей и гостиниц, располагающихся рядом с аэропортом НПС Килемары :

НПС Килемары Марий Эл 56° 44' 13.0596" N, 46° 56' 4.5204" E
Код аэродрома ИКАО
HET6
Код аэродрома RU
ХЕТ6
Координаты
N56.73696° E046.93459°
Превышение над уровнем моря
115
Основная полоса
13/31
Курс магнитный
132,4/312,4
Длина основной ВПП
20
Ширина основной ВПП
18
Покрытие основной ВПП
Твёрдое
Освещение ВПП
Нет
Тип: 
Вертодром
Класс аэродрома: 
Принадлежность: 
ГА
Статус: 
Действующий
Сайт: 
E-mail аэродрома: 
Страна: 
Россия
Регион: 
Марий Эл
Город: 
Дополнительная информация: 
Оператор: нефтеперекачивающая станция магистрального нефтепровода.

Найти трансфер

С помощью этой формы Вы можете найти трансфер из аэропорта НПС Килемары в город, аэропорт или вокзал:

Карта места

Javascript is required to view this map.

Погода в аэропортах:

Авиационная погода в Пскове

Регион: 
Погода METAR: 
ULOO 170600Z 31002MPS 290V020 6000 -SN OVC015 M16/M17 Q1018 RESN R01/490139 NOSIG RMK QFE759
Время наблюдения
2021-01-17T06:00:00Z
Температура C
-16.0
Точка росы
-17.0
Направление ветра
310
Скорость ветра (узлы)
4
Метео видимость
3.73
Явления погоды
-SN
Условия полета
MVFR

Авиационная погода в Ургенче

Регион: 
Погода METAR: 
UTNU 170530Z 07010KT 4900 BR NSC M01/M03 Q1016 R31/CLRD70 NOSIG
Время наблюдения
2021-01-17T05:30:00Z
Температура C
-1.0
Точка росы
-3.0
Направление ветра
70
Скорость ветра (узлы)
10
Метео видимость
3.04
Явления погоды
BR
Условия полета
MVFR

Авиационная погода в Гомеле

Регион: 
Погода METAR: 
UMGG 170530Z 29005MPS 2100 -SHSN BR OVC018CB M18/M21 Q1013 R28/490635 TEMPO 1400
Время наблюдения
2021-01-17T05:30:00Z
Температура C
-18.0
Точка росы
-21.0
Направление ветра
290
Скорость ветра (узлы)
10
Метео видимость
1.3
Явления погоды
-SHSN BR
Условия полета
IFR
Аэропорт подробнее: 

Авиационная погода в Нижнекамске

Регион: 
Погода METAR: 
UWKE 170530Z 25009MPS 5000 -SN BLSN OVC009 M14/M17 Q1000 R21/421040 NOSIG RMK QFE733/0978
Время наблюдения
2021-01-17T05:30:00Z
Температура C
-14.0
Точка росы
-17.0
Направление ветра
250
Скорость ветра (узлы)
17
Метео видимость
3.11
Явления погоды
-SN BLSN
Условия полета
IFR
Аэропорт подробнее: